createdAt,value
2023-04-17T00:00:13.709Z,88368.00
2023-04-17T00:01:13.684Z,88368.00
2023-04-17T00:02:13.797Z,88368.00
2023-04-17T00:03:13.831Z,88368.00
2023-04-17T00:04:13.825Z,88368.00
2023-04-17T00:05:13.732Z,88368.00
2023-04-17T00:06:13.725Z,88370.00
2023-04-17T00:07:13.682Z,88368.00
2023-04-17T00:08:13.691Z,88366.00
2023-04-17T00:09:13.813Z,88370.00
2023-04-17T00:10:13.667Z,88370.00
2023-04-17T00:11:13.690Z,88372.00
2023-04-17T00:12:13.656Z,88372.00
2023-04-17T00:13:13.640Z,88372.00
2023-04-17T00:14:13.632Z,88372.00
2023-04-17T00:15:13.638Z,88368.00
2023-04-17T00:16:13.809Z,88372.00
2023-04-17T00:17:13.744Z,88372.00
2023-04-17T00:18:13.825Z,88374.00
2023-04-17T00:19:13.852Z,88366.00
2023-04-17T00:20:13.924Z,88366.00
2023-04-17T00:21:14.007Z,88366.00
2023-04-17T00:22:14.050Z,88370.00
2023-04-17T00:23:14.091Z,88368.00
2023-04-17T00:24:14.157Z,88368.00
2023-04-17T00:25:14.185Z,88368.00
2023-04-17T00:26:14.141Z,88362.00
2023-04-17T00:27:14.132Z,88362.00
2023-04-17T00:28:14.131Z,88366.00
2023-04-17T00:29:14.205Z,88364.00
2023-04-17T00:30:14.148Z,88364.00
2023-04-17T00:31:14.135Z,88364.00
2023-04-17T00:32:14.245Z,88358.00
2023-04-17T00:33:14.117Z,88364.00
2023-04-17T00:34:14.120Z,88362.00
2023-04-17T00:35:14.190Z,88356.00
2023-04-17T00:36:14.228Z,88360.00
2023-04-17T00:37:14.286Z,88356.00
2023-04-17T00:38:14.333Z,88356.00
2023-04-17T00:39:14.582Z,88360.00
2023-04-17T00:40:14.430Z,88356.00
2023-04-17T00:41:14.397Z,88354.00
2023-04-17T00:42:14.399Z,88354.00
2023-04-17T00:43:14.401Z,88351.00
2023-04-17T00:44:14.399Z,88349.00
2023-04-17T00:45:14.412Z,88351.00
2023-04-17T00:46:14.427Z,88351.00
2023-04-17T00:47:14.383Z,88351.00
2023-04-17T00:48:14.386Z,88351.00
2023-04-17T00:49:14.416Z,88351.00
2023-04-17T00:50:14.416Z,88349.00
2023-04-17T00:51:14.388Z,88347.00
2023-04-17T00:52:14.436Z,88349.00
2023-04-17T00:53:14.380Z,88349.00
2023-04-17T00:54:14.388Z,88345.00
2023-04-17T00:55:14.390Z,88345.00
2023-04-17T00:56:14.357Z,88343.00
2023-04-17T00:57:14.418Z,88343.00
2023-04-17T00:58:14.388Z,88343.00
2023-04-17T00:59:14.489Z,88345.00
2023-04-17T01:00:14.432Z,88343.00
2023-04-17T01:01:14.546Z,88341.00
2023-04-17T01:02:14.629Z,88341.00
2023-04-17T01:03:14.804Z,88341.00
2023-04-17T01:04:14.923Z,88345.00
2023-04-17T01:05:14.883Z,88343.00
2023-04-17T01:06:14.788Z,88339.00
2023-04-17T01:07:14.863Z,88345.00
2023-04-17T01:08:14.918Z,88345.00
2023-04-17T01:09:14.998Z,88343.00
2023-04-17T01:10:15.098Z,88345.00
2023-04-17T01:11:15.093Z,88343.00
2023-04-17T01:12:15.149Z,88343.00
2023-04-17T01:13:15.306Z,88345.00
2023-04-17T01:14:15.242Z,88345.00
2023-04-17T01:15:15.200Z,88345.00
2023-04-17T01:16:15.289Z,88343.00
2023-04-17T01:17:15.176Z,88341.00
2023-04-17T01:18:15.178Z,88337.00
2023-04-17T01:19:15.172Z,88339.00
2023-04-17T01:20:15.192Z,88341.00
2023-04-17T01:21:15.186Z,88341.00
2023-04-17T01:22:15.177Z,88341.00
2023-04-17T01:23:15.185Z,88341.00
2023-04-17T01:24:15.156Z,88343.00
2023-04-17T01:25:15.187Z,88343.00
2023-04-17T01:26:15.145Z,88345.00
2023-04-17T01:27:15.123Z,88345.00
2023-04-17T01:28:15.140Z,88347.00
2023-04-17T01:29:15.154Z,88347.00
2023-04-17T01:30:15.120Z,88347.00
2023-04-17T01:31:15.160Z,88347.00
2023-04-17T01:32:15.156Z,88349.00
2023-04-17T01:33:15.147Z,88351.00
2023-04-17T01:34:15.208Z,88349.00
2023-04-17T01:35:15.315Z,88349.00
2023-04-17T01:36:15.351Z,88349.00
2023-04-17T01:37:15.373Z,88349.00
2023-04-17T01:38:15.447Z,88347.00
2023-04-17T01:39:15.519Z,88347.00
2023-04-17T01:40:15.714Z,88349.00
2023-04-17T01:41:15.926Z,88349.00
2023-04-17T01:42:15.650Z,88349.00
2023-04-17T01:43:15.625Z,88347.00
2023-04-17T01:44:15.645Z,88347.00
2023-04-17T01:45:15.712Z,88345.00
2023-04-17T01:46:16.090Z,88347.00
2023-04-17T01:47:15.748Z,88347.00
2023-04-17T01:48:15.671Z,88347.00
2023-04-17T01:49:15.642Z,88347.00
2023-04-17T01:50:15.669Z,88347.00
2023-04-17T01:51:15.730Z,88349.00
2023-04-17T01:52:15.838Z,88349.00
2023-04-17T01:53:16.831Z,88349.00
2023-04-17T01:54:16.832Z,88347.00
2023-04-17T01:55:15.947Z,88347.00
2023-04-17T01:56:16.057Z,88345.00
2023-04-17T01:57:16.084Z,88347.00
2023-04-17T01:58:16.162Z,88345.00
2023-04-17T01:59:16.280Z,88349.00
2023-04-17T02:00:16.264Z,88347.00
2023-04-17T02:02:16.479Z,88349.00
2023-04-17T02:03:17.430Z,88345.00
2023-04-17T02:04:16.633Z,88345.00
2023-04-17T02:05:16.551Z,88347.00
2023-04-17T02:06:16.636Z,88345.00
2023-04-17T02:07:16.682Z,88347.00
2023-04-17T02:08:16.742Z,88349.00
2023-04-17T02:09:16.821Z,88345.00
2023-04-17T02:10:16.889Z,88349.00
2023-04-17T02:11:16.965Z,88351.00
2023-04-17T02:12:17.035Z,88347.00
2023-04-17T02:13:17.205Z,88349.00
2023-04-17T02:14:17.104Z,88353.00
2023-04-17T02:15:17.174Z,88351.00
2023-04-17T02:16:17.343Z,88353.00
2023-04-17T02:17:17.286Z,88353.00
2023-04-17T02:18:17.348Z,88351.00
2023-04-17T02:19:17.421Z,88353.00
2023-04-17T02:20:17.482Z,88353.00
2023-04-17T02:21:17.569Z,88349.00
2023-04-17T02:22:17.631Z,88353.00
2023-04-17T02:23:17.648Z,88353.00
2023-04-17T02:24:17.716Z,88351.00
2023-04-17T02:25:17.785Z,88349.00
2023-04-17T02:26:17.861Z,88349.00
2023-04-17T02:27:17.928Z,88351.00
2023-04-17T02:28:18.012Z,88353.00
2023-04-17T02:29:18.038Z,88353.00
2023-04-17T02:30:18.119Z,88354.00
2023-04-17T02:31:18.270Z,88351.00
2023-04-17T02:32:18.316Z,88349.00
2023-04-17T02:33:18.275Z,88351.00
2023-04-17T02:34:18.417Z,88343.00
2023-04-17T02:35:18.395Z,88345.00
2023-04-17T02:36:18.861Z,88343.00
2023-04-17T02:37:18.518Z,88345.00
2023-04-17T02:38:18.590Z,88349.00
2023-04-17T02:39:18.651Z,88351.00
2023-04-17T02:40:18.710Z,88351.00
2023-04-17T02:41:18.802Z,88353.00
2023-04-17T02:42:18.769Z,88351.00
2023-04-17T02:43:18.766Z,88353.00
2023-04-17T02:44:18.769Z,88349.00
2023-04-17T02:45:18.783Z,88353.00
2023-04-17T02:46:18.834Z,88353.00
2023-04-17T02:47:18.832Z,88347.00
2023-04-17T02:48:18.756Z,88349.00
2023-04-17T02:49:18.722Z,88349.00
2023-04-17T02:50:18.753Z,88351.00
2023-04-17T02:51:18.764Z,88347.00
2023-04-17T02:52:18.749Z,88349.00
2023-04-17T02:53:18.727Z,88349.00
2023-04-17T02:54:18.723Z,88351.00
2023-04-17T02:55:18.723Z,88347.00
2023-04-17T02:56:18.744Z,88347.00
2023-04-17T02:57:18.744Z,88341.00
2023-04-17T02:58:18.744Z,88347.00
2023-04-17T02:59:18.715Z,88347.00
2023-04-17T03:00:18.737Z,88343.00
2023-04-17T03:01:18.819Z,88345.00
2023-04-17T03:02:19.004Z,88343.00
2023-04-17T03:03:18.896Z,88347.00
2023-04-17T03:04:18.792Z,88345.00
2023-04-17T03:05:18.809Z,88347.00
2023-04-17T03:06:18.821Z,88349.00
2023-04-17T03:07:18.821Z,88347.00
2023-04-17T03:08:18.796Z,88349.00
2023-04-17T03:09:18.744Z,88349.00
2023-04-17T03:10:18.762Z,88349.00
2023-04-17T03:11:18.781Z,88351.00
2023-04-17T03:12:18.820Z,88349.00
2023-04-17T03:13:18.892Z,88349.00
2023-04-17T03:14:18.961Z,88347.00
2023-04-17T03:15:19.012Z,88347.00
2023-04-17T03:16:19.160Z,88343.00
2023-04-17T03:17:19.139Z,88345.00
2023-04-17T03:18:19.188Z,88345.00
2023-04-17T03:19:19.240Z,88343.00
2023-04-17T03:20:19.339Z,88343.00
2023-04-17T03:21:19.408Z,88345.00
2023-04-17T03:22:19.465Z,88343.00
2023-04-17T03:23:19.485Z,88341.00
2023-04-17T03:24:19.545Z,88341.00
2023-04-17T03:25:19.536Z,88343.00
2023-04-17T03:26:19.539Z,88343.00
2023-04-17T03:27:19.537Z,88345.00
2023-04-17T03:28:19.540Z,88337.00
2023-04-17T03:29:19.502Z,88339.00
2023-04-17T03:30:19.499Z,88337.00
2023-04-17T03:31:19.622Z,88339.00
2023-04-17T03:32:19.533Z,88343.00
2023-04-17T03:33:19.536Z,88337.00
2023-04-17T03:34:19.588Z,88341.00
2023-04-17T03:35:19.674Z,88341.00
2023-04-17T03:36:19.685Z,88343.00
2023-04-17T03:37:19.709Z,88343.00
2023-04-17T03:38:19.756Z,88343.00
2023-04-17T03:39:19.746Z,88341.00
2023-04-17T03:40:19.758Z,88335.00
2023-04-17T03:41:19.770Z,88337.00
2023-04-17T03:42:19.791Z,88337.00
2023-04-17T03:43:19.792Z,88337.00
2023-04-17T03:44:19.794Z,88339.00
2023-04-17T03:45:19.802Z,88339.00
2023-04-17T03:46:19.846Z,88341.00
2023-04-17T03:47:19.859Z,88341.00
2023-04-17T03:48:19.877Z,88339.00
2023-04-17T03:49:19.880Z,88339.00
2023-04-17T03:50:19.858Z,88341.00
2023-04-17T03:51:19.837Z,88341.00
2023-04-17T03:52:19.888Z,88341.00
2023-04-17T03:53:19.878Z,88343.00
2023-04-17T03:54:19.876Z,88343.00
2023-04-17T03:55:19.914Z,88345.00
2023-04-17T03:56:19.891Z,88345.00
2023-04-17T03:57:19.913Z,88343.00
2023-04-17T03:58:19.961Z,88345.00
2023-04-17T03:59:19.924Z,88343.00
2023-04-17T04:00:19.912Z,88345.00
2023-04-17T04:01:19.930Z,88345.00
2023-04-17T04:02:20.026Z,88349.00
2023-04-17T04:03:20.243Z,88349.00
2023-04-17T04:04:20.094Z,88347.00
2023-04-17T04:05:20.136Z,88353.00
2023-04-17T04:06:19.972Z,88347.00
2023-04-17T04:07:19.989Z,88347.00
2023-04-17T04:08:19.977Z,88349.00
2023-04-17T04:09:19.996Z,88347.00
2023-04-17T04:10:20.001Z,88351.00
2023-04-17T04:11:19.975Z,88351.00
2023-04-17T04:12:20.036Z,88349.00
2023-04-17T04:13:19.968Z,88349.00
2023-04-17T04:14:19.983Z,88349.00
2023-04-17T04:15:19.982Z,88353.00
2023-04-17T04:16:20.036Z,88354.00
2023-04-17T04:17:20.010Z,88351.00
2023-04-17T04:18:19.996Z,88351.00
2023-04-17T04:19:19.976Z,88351.00
2023-04-17T04:20:19.996Z,88349.00
2023-04-17T04:21:20.002Z,88349.00
2023-04-17T04:22:20.075Z,88351.00
2023-04-17T04:23:20.016Z,88349.00
2023-04-17T04:24:20.021Z,88351.00
2023-04-17T04:25:20.020Z,88349.00
2023-04-17T04:26:20.028Z,88351.00
2023-04-17T04:27:20.024Z,88347.00
2023-04-17T04:28:20.019Z,88347.00
2023-04-17T04:29:20.026Z,88345.00
2023-04-17T04:30:20.062Z,88347.00
2023-04-17T04:31:20.114Z,88349.00
2023-04-17T04:32:20.126Z,88345.00
2023-04-17T04:33:20.064Z,88345.00
2023-04-17T04:34:20.098Z,88347.00
2023-04-17T04:35:20.076Z,88347.00
2023-04-17T04:36:20.092Z,88345.00
2023-04-17T04:37:20.113Z,88349.00
2023-04-17T04:38:20.166Z,88347.00
2023-04-17T04:39:20.100Z,88349.00
2023-04-17T04:40:20.124Z,88351.00
2023-04-17T04:41:20.131Z,88354.00
2023-04-17T04:42:20.136Z,88353.00
2023-04-17T04:43:22.334Z,88351.00
2023-04-17T04:44:20.174Z,88351.00
2023-04-17T04:45:20.187Z,88353.00
2023-04-17T04:46:20.241Z,88354.00
2023-04-17T04:47:20.306Z,88351.00
2023-04-17T04:48:20.289Z,88353.00
2023-04-17T04:49:20.317Z,88356.00
2023-04-17T04:50:20.332Z,88353.00
2023-04-17T04:51:20.375Z,88354.00
2023-04-17T04:52:20.397Z,88354.00
2023-04-17T04:53:20.419Z,88356.00
2023-04-17T04:54:20.458Z,88354.00
2023-04-17T04:55:20.491Z,88358.00
2023-04-17T04:56:20.518Z,88358.00
2023-04-17T04:57:20.568Z,88354.00
2023-04-17T04:58:20.570Z,88358.00
2023-04-17T04:59:20.596Z,88354.00
2023-04-17T05:00:20.607Z,88360.00
2023-04-17T05:01:20.738Z,88358.00
2023-04-17T05:02:20.784Z,88356.00
2023-04-17T05:03:20.955Z,88358.00
2023-04-17T05:04:20.776Z,88354.00
2023-04-17T05:05:20.723Z,88356.00
2023-04-17T05:06:20.714Z,88354.00
2023-04-17T05:07:20.710Z,88364.00
2023-04-17T05:08:20.780Z,88358.00
2023-04-17T05:09:20.717Z,88360.00
2023-04-17T05:10:20.768Z,88362.00
2023-04-17T05:11:20.752Z,88362.00
2023-04-17T05:12:20.788Z,88358.00
2023-04-17T05:13:20.899Z,88362.00
2023-04-17T05:14:20.792Z,88362.00
2023-04-17T05:15:20.799Z,88362.00
2023-04-17T05:16:20.855Z,88358.00
2023-04-17T05:17:20.951Z,88362.00
2023-04-17T05:18:20.884Z,88364.00
2023-04-17T05:19:20.846Z,88364.00
2023-04-17T05:20:20.907Z,88364.00
2023-04-17T05:21:20.944Z,88366.00
2023-04-17T05:22:21.001Z,88366.00
2023-04-17T05:23:21.075Z,88358.00
2023-04-17T05:24:21.063Z,88362.00
2023-04-17T05:25:21.111Z,88360.00
2023-04-17T05:26:21.139Z,88364.00
2023-04-17T05:27:21.230Z,88364.00
2023-04-17T05:28:21.262Z,88368.00
2023-04-17T05:29:21.255Z,88366.00
2023-04-17T05:30:21.378Z,88368.00
2023-04-17T05:31:21.487Z,88374.00
2023-04-17T05:32:21.503Z,88372.00
2023-04-17T05:33:21.929Z,88368.00
2023-04-17T05:34:22.615Z,88372.00
2023-04-17T05:35:21.577Z,88376.00
2023-04-17T05:36:21.582Z,88376.00
2023-04-17T05:37:21.626Z,88378.00
2023-04-17T05:38:21.938Z,88374.00
2023-04-17T05:39:21.781Z,88376.00
2023-04-17T05:40:21.718Z,88378.00
2023-04-17T05:41:21.703Z,88378.00
2023-04-17T05:42:21.728Z,88378.00
2023-04-17T05:43:21.729Z,88376.00
2023-04-17T05:44:21.720Z,88374.00
2023-04-17T05:45:24.182Z,88376.00
2023-04-17T05:46:21.893Z,88372.00
2023-04-17T05:47:21.968Z,88372.00
2023-04-17T05:48:21.875Z,88374.00
2023-04-17T05:49:21.855Z,88370.00
2023-04-17T05:50:21.873Z,88370.00
2023-04-17T05:51:21.880Z,88370.00
2023-04-17T05:52:21.870Z,88368.00
2023-04-17T05:53:21.924Z,88370.00
2023-04-17T05:54:22.421Z,88368.00
2023-04-17T05:55:21.909Z,88374.00
2023-04-17T05:56:22.021Z,88378.00
2023-04-17T05:57:21.958Z,88372.00
2023-04-17T05:58:24.421Z,88374.00
2023-04-17T05:59:22.960Z,88370.00
2023-04-17T06:00:22.017Z,88370.00
2023-04-17T06:01:22.012Z,88372.00
2023-04-17T06:02:22.183Z,88372.00
2023-04-17T06:03:22.205Z,88376.00
2023-04-17T06:04:22.267Z,88380.00
2023-04-17T06:05:22.187Z,88376.00
2023-04-17T06:06:22.067Z,88378.00
2023-04-17T06:07:22.101Z,88378.00
2023-04-17T06:08:22.103Z,88378.00
2023-04-17T06:09:23.019Z,88382.00
2023-04-17T06:10:22.154Z,88382.00
2023-04-17T06:11:22.182Z,88384.00
2023-04-17T06:12:22.213Z,88386.00
2023-04-17T06:13:22.256Z,88386.00
2023-04-17T06:14:22.357Z,88390.00
2023-04-17T06:15:22.346Z,88388.00
2023-04-17T06:16:23.029Z,88388.00
2023-04-17T06:17:22.577Z,88392.00
2023-04-17T06:18:22.535Z,88392.00
2023-04-17T06:19:22.676Z,88394.00
2023-04-17T06:20:22.564Z,88394.00
2023-04-17T06:21:22.617Z,88394.00
2023-04-17T06:22:22.670Z,88394.00
2023-04-17T06:23:22.676Z,88392.00
2023-04-17T06:24:22.708Z,88392.00
2023-04-17T06:25:22.738Z,88392.00
2023-04-17T06:26:22.763Z,88392.00
2023-04-17T06:27:22.781Z,88390.00
2023-04-17T06:28:22.802Z,88392.00
2023-04-17T06:29:22.820Z,88390.00
2023-04-17T06:30:22.869Z,88394.00
2023-04-17T06:31:22.939Z,88392.00
2023-04-17T06:32:22.926Z,88390.00
2023-04-17T06:33:24.610Z,88394.00
2023-04-17T06:34:22.970Z,88394.00
2023-04-17T06:35:22.970Z,88392.00
2023-04-17T06:36:23.002Z,88392.00
2023-04-17T06:37:23.070Z,88396.00
2023-04-17T06:38:23.045Z,88398.00
2023-04-17T06:39:23.056Z,88396.00
2023-04-17T06:40:23.080Z,88396.00
2023-04-17T06:41:23.083Z,88396.00
2023-04-17T06:42:23.075Z,88400.00
2023-04-17T06:43:23.116Z,88398.00
2023-04-17T06:44:23.119Z,88403.00
2023-04-17T06:45:23.948Z,88405.00
2023-04-17T06:46:23.268Z,88403.00
2023-04-17T06:47:23.253Z,88403.00
2023-04-17T06:48:23.210Z,88403.00
2023-04-17T06:49:23.254Z,88403.00
2023-04-17T06:50:23.242Z,88403.00
2023-04-17T06:51:23.398Z,88405.00
2023-04-17T06:52:23.270Z,88405.00
2023-04-17T06:53:23.314Z,88403.00
2023-04-17T06:54:23.337Z,88401.00
2023-04-17T06:55:23.311Z,88407.00
2023-04-17T06:56:23.346Z,88403.00
2023-04-17T06:57:23.341Z,88407.00
2023-04-17T06:58:23.392Z,88405.00
2023-04-17T06:59:23.386Z,88405.00
2023-04-17T07:00:23.451Z,88405.00
2023-04-17T07:01:23.464Z,88405.00
2023-04-17T07:02:23.619Z,88407.00
2023-04-17T07:03:23.721Z,88405.00
2023-04-17T07:04:23.715Z,88407.00
2023-04-17T07:05:23.600Z,88407.00
2023-04-17T07:06:23.627Z,88407.00
2023-04-17T07:07:23.673Z,88405.00
2023-04-17T07:08:23.974Z,88411.00
2023-04-17T07:09:23.809Z,88409.00
2023-04-17T07:10:23.779Z,88409.00
2023-04-17T07:11:23.844Z,88413.00
2023-04-17T07:12:23.840Z,88413.00
2023-04-17T07:13:23.895Z,88413.00
2023-04-17T07:14:23.954Z,88413.00
2023-04-17T07:15:23.969Z,88415.00
2023-04-17T07:16:24.024Z,88415.00
2023-04-17T07:17:24.018Z,88417.00
2023-04-17T07:18:24.144Z,88419.00
2023-04-17T07:19:24.064Z,88415.00
2023-04-17T07:20:24.092Z,88415.00
2023-04-17T07:21:24.259Z,88419.00
2023-04-17T07:22:25.365Z,88419.00
2023-04-17T07:23:24.165Z,88419.00
2023-04-17T07:24:24.482Z,88419.00
2023-04-17T07:25:24.281Z,88417.00
2023-04-17T07:26:24.296Z,88417.00
2023-04-17T07:27:24.414Z,88419.00
2023-04-17T07:28:24.314Z,88415.00
2023-04-17T07:29:24.460Z,88415.00
2023-04-17T07:30:24.387Z,88417.00
2023-04-17T07:31:24.432Z,88415.00
2023-04-17T07:32:24.492Z,88413.00
2023-04-17T07:33:24.472Z,88413.00
2023-04-17T07:34:24.568Z,88413.00
2023-04-17T07:35:24.499Z,88415.00
2023-04-17T07:36:25.502Z,88415.00
2023-04-17T07:37:24.570Z,88415.00
2023-04-17T07:38:24.702Z,88413.00
2023-04-17T07:39:24.614Z,88413.00
2023-04-17T07:40:24.639Z,88413.00
2023-04-17T07:41:24.734Z,88413.00
2023-04-17T07:42:24.668Z,88411.00
2023-04-17T07:43:24.693Z,88415.00
2023-04-17T07:44:24.730Z,88413.00
2023-04-17T07:45:24.727Z,88413.00
2023-04-17T07:46:24.800Z,88413.00
2023-04-17T07:47:24.842Z,88413.00
2023-04-17T07:48:24.802Z,88415.00
2023-04-17T07:49:26.617Z,88417.00
2023-04-17T07:50:24.859Z,88417.00
2023-04-17T07:51:24.912Z,88417.00
2023-04-17T07:52:25.048Z,88423.00
2023-04-17T07:53:25.071Z,88423.00
2023-04-17T07:54:25.117Z,88421.00
2023-04-17T07:55:25.229Z,88419.00
2023-04-17T07:56:25.291Z,88423.00
2023-04-17T07:57:25.360Z,88423.00
2023-04-17T07:58:25.400Z,88421.00
2023-04-17T07:59:25.389Z,88421.00
2023-04-17T08:00:25.464Z,88419.00
2023-04-17T08:01:25.423Z,88421.00
2023-04-17T08:02:25.588Z,88423.00
2023-04-17T08:03:25.591Z,88425.00
2023-04-17T08:04:25.617Z,88421.00
2023-04-17T08:05:25.576Z,88421.00
2023-04-17T08:06:25.540Z,88423.00
2023-04-17T08:07:25.622Z,88425.00
2023-04-17T08:08:25.686Z,88425.00
2023-04-17T08:09:25.775Z,88431.00
2023-04-17T08:10:25.815Z,88427.00
2023-04-17T08:11:25.917Z,88431.00
2023-04-17T08:12:26.098Z,88429.00
2023-04-17T08:13:26.097Z,88429.00
2023-04-17T08:14:26.528Z,88431.00
2023-04-17T08:15:26.263Z,88427.00
2023-04-17T08:16:27.027Z,88427.00
2023-04-17T08:17:26.461Z,88427.00
2023-04-17T08:18:26.593Z,88429.00
2023-04-17T08:19:26.559Z,88427.00
2023-04-17T08:20:26.628Z,88429.00
2023-04-17T08:21:26.705Z,88425.00
2023-04-17T08:22:26.770Z,88427.00
2023-04-17T08:23:26.884Z,88425.00
2023-04-17T08:24:26.807Z,88425.00
2023-04-17T08:25:26.812Z,88425.00
2023-04-17T08:26:26.842Z,88425.00
2023-04-17T08:27:26.856Z,88421.00
2023-04-17T08:28:26.889Z,88425.00
2023-04-17T08:29:26.972Z,88417.00
2023-04-17T08:30:26.874Z,88417.00
2023-04-17T08:31:27.031Z,88417.00
2023-04-17T08:32:27.510Z,88417.00
2023-04-17T08:33:26.971Z,88419.00
2023-04-17T08:34:26.988Z,88425.00
2023-04-17T08:35:27.023Z,88419.00
2023-04-17T08:36:26.988Z,88419.00
2023-04-17T08:37:27.122Z,88421.00
2023-04-17T08:38:27.170Z,88419.00
2023-04-17T08:39:27.442Z,88423.00
2023-04-17T08:40:27.346Z,88423.00
2023-04-17T08:41:27.372Z,88423.00
2023-04-17T08:42:27.443Z,88421.00
2023-04-17T08:43:27.509Z,88423.00
2023-04-17T08:44:27.594Z,88419.00
2023-04-17T08:45:27.626Z,88423.00
2023-04-17T08:46:27.712Z,88425.00
2023-04-17T08:47:27.711Z,88423.00
2023-04-17T08:48:27.691Z,88427.00
2023-04-17T08:49:27.701Z,88423.00
2023-04-17T08:50:27.812Z,88423.00
2023-04-17T08:51:27.775Z,88425.00
2023-04-17T08:52:27.704Z,88419.00
2023-04-17T08:53:27.736Z,88421.00
2023-04-17T08:54:27.772Z,88419.00
2023-04-17T08:55:27.799Z,88411.00
2023-04-17T08:56:27.803Z,88419.00
2023-04-17T08:57:27.809Z,88421.00
2023-04-17T08:58:28.729Z,88421.00
2023-04-17T08:59:27.848Z,88415.00
2023-04-17T09:00:27.881Z,88415.00
2023-04-17T09:01:27.989Z,88421.00
2023-04-17T09:02:28.192Z,88419.00
2023-04-17T09:03:28.191Z,88419.00
2023-04-17T09:04:28.109Z,88415.00
2023-04-17T09:05:28.028Z,88415.00
2023-04-17T09:06:28.027Z,88427.00
2023-04-17T09:07:28.055Z,88419.00
2023-04-17T09:08:28.134Z,88417.00
2023-04-17T09:09:28.105Z,88409.00
2023-04-17T09:10:28.181Z,88415.00
2023-04-17T09:11:28.248Z,88415.00
2023-04-17T09:12:28.319Z,88421.00
2023-04-17T09:13:28.371Z,88411.00
2023-04-17T09:14:28.991Z,88413.00
2023-04-17T09:15:28.524Z,88409.00
2023-04-17T09:16:28.864Z,88409.00
2023-04-17T09:17:28.710Z,88409.00
2023-04-17T09:18:28.769Z,88409.00
2023-04-17T09:19:28.799Z,88413.00
2023-04-17T09:20:28.840Z,88419.00
2023-04-17T09:21:28.844Z,88411.00
2023-04-17T09:22:28.954Z,88413.00
2023-04-17T09:23:28.962Z,88411.00
2023-04-17T09:24:28.952Z,88409.00
2023-04-17T09:25:28.994Z,88411.00
2023-04-17T09:26:28.989Z,88413.00
2023-04-17T09:27:29.061Z,88413.00
2023-04-17T09:28:29.059Z,88419.00
2023-04-17T09:29:29.130Z,88421.00
2023-04-17T09:30:29.265Z,88417.00
2023-04-17T09:31:29.278Z,88425.00
2023-04-17T09:32:29.207Z,88421.00
2023-04-17T09:33:29.285Z,88417.00
2023-04-17T09:34:29.273Z,88415.00
2023-04-17T09:35:29.335Z,88417.00
2023-04-17T09:36:29.311Z,88419.00
2023-04-17T09:37:29.355Z,88413.00
2023-04-17T09:38:29.403Z,88415.00
2023-04-17T09:39:29.490Z,88411.00
2023-04-17T09:40:29.457Z,88413.00
2023-04-17T09:41:29.528Z,88415.00
2023-04-17T09:42:29.535Z,88413.00
2023-04-17T09:43:29.561Z,88415.00
2023-04-17T09:44:29.568Z,88411.00
2023-04-17T09:45:29.664Z,88415.00
2023-04-17T09:46:30.628Z,88419.00
2023-04-17T09:47:29.661Z,88417.00
2023-04-17T09:48:29.673Z,88419.00
2023-04-17T09:49:29.719Z,88417.00
2023-04-17T09:50:29.681Z,88419.00
2023-04-17T09:51:29.711Z,88419.00
2023-04-17T09:52:29.715Z,88421.00
2023-04-17T09:53:29.755Z,88421.00
2023-04-17T09:54:29.823Z,88419.00
2023-04-17T09:55:29.977Z,88423.00
2023-04-17T09:56:29.961Z,88423.00
2023-04-17T09:57:30.017Z,88421.00
2023-04-17T09:58:30.104Z,88423.00
2023-04-17T09:59:30.276Z,88419.00
2023-04-17T10:00:30.274Z,88417.00
2023-04-17T10:01:30.352Z,88417.00
2023-04-17T10:02:30.511Z,88423.00
2023-04-17T10:03:30.700Z,88423.00
2023-04-17T10:04:30.565Z,88423.00
2023-04-17T10:05:30.618Z,88419.00
2023-04-17T10:06:30.720Z,88417.00
2023-04-17T10:07:30.792Z,88419.00
2023-04-17T10:08:30.859Z,88415.00
2023-04-17T10:09:31.014Z,88413.00
2023-04-17T10:10:31.044Z,88417.00
2023-04-17T10:11:31.105Z,88419.00
2023-04-17T10:12:32.468Z,88417.00
2023-04-17T10:13:31.244Z,88415.00
2023-04-17T10:14:31.341Z,88413.00
2023-04-17T10:15:31.432Z,88417.00
2023-04-17T10:16:31.468Z,88409.00
2023-04-17T10:17:32.164Z,88411.00
2023-04-17T10:18:31.556Z,88411.00
2023-04-17T10:19:31.471Z,88409.00
2023-04-17T10:20:31.465Z,88413.00
2023-04-17T10:21:31.483Z,88409.00
2023-04-17T10:22:31.583Z,88411.00
2023-04-17T10:23:31.611Z,88409.00
2023-04-17T10:24:31.500Z,88407.00
2023-04-17T10:25:32.558Z,88405.00
2023-04-17T10:26:32.055Z,88405.00
2023-04-17T10:27:31.608Z,88409.00
2023-04-17T10:28:31.600Z,88409.00
2023-04-17T10:29:31.647Z,88407.00
2023-04-17T10:30:32.058Z,88413.00
2023-04-17T10:31:31.714Z,88413.00
2023-04-17T10:32:31.825Z,88415.00
2023-04-17T10:33:31.935Z,88411.00
2023-04-17T10:34:32.525Z,88411.00
2023-04-17T10:35:31.779Z,88409.00
2023-04-17T10:36:31.769Z,88409.00
2023-04-17T10:37:31.814Z,88413.00
2023-04-17T10:38:34.541Z,88409.00
2023-04-17T10:39:31.838Z,88409.00
2023-04-17T10:40:31.827Z,88403.00
2023-04-17T10:41:31.874Z,88401.00
2023-04-17T10:42:31.866Z,88403.00
2023-04-17T10:43:31.845Z,88405.00
2023-04-17T10:44:31.868Z,88401.00
2023-04-17T10:45:31.929Z,88401.00
2023-04-17T10:46:31.942Z,88401.00
2023-04-17T10:47:31.974Z,88401.00
2023-04-17T10:48:31.964Z,88400.00
2023-04-17T10:49:31.928Z,88398.00
2023-04-17T10:50:31.925Z,88396.00
2023-04-17T10:51:31.950Z,88396.00
2023-04-17T10:52:31.974Z,88400.00
2023-04-17T10:53:31.964Z,88398.00
2023-04-17T10:54:31.953Z,88401.00
2023-04-17T10:55:31.971Z,88396.00
2023-04-17T10:56:31.987Z,88400.00
2023-04-17T10:57:31.984Z,88398.00
2023-04-17T10:58:32.193Z,88401.00
2023-04-17T10:59:31.972Z,88401.00
2023-04-17T11:00:31.996Z,88400.00
2023-04-17T11:01:32.129Z,88400.00
2023-04-17T11:02:32.015Z,88401.00
2023-04-17T11:03:32.107Z,88398.00
2023-04-17T11:04:32.241Z,88396.00
2023-04-17T11:05:32.009Z,88398.00
2023-04-17T11:06:32.038Z,88396.00
2023-04-17T11:07:32.017Z,88394.00
2023-04-17T11:08:32.038Z,88394.00
2023-04-17T11:09:32.047Z,88392.00
2023-04-17T11:10:32.047Z,88394.00
2023-04-17T11:11:43.438Z,88388.00
2023-04-17T11:12:33.038Z,88388.00
2023-04-17T11:13:32.555Z,88386.00
2023-04-17T11:14:32.081Z,88394.00
2023-04-17T11:15:32.039Z,88386.00
2023-04-17T11:16:32.098Z,88392.00
2023-04-17T11:17:32.097Z,88396.00
2023-04-17T11:18:32.040Z,88396.00
2023-04-17T11:19:32.126Z,88394.00
2023-04-17T11:20:32.106Z,88386.00
2023-04-17T11:21:32.157Z,88392.00
2023-04-17T11:22:32.039Z,88392.00
2023-04-17T11:23:32.066Z,88386.00
2023-04-17T11:24:32.052Z,88390.00
2023-04-17T11:25:32.117Z,88388.00
2023-04-17T11:26:32.147Z,88392.00
2023-04-17T11:27:32.132Z,88390.00
2023-04-17T11:28:32.086Z,88388.00
2023-04-17T11:29:32.160Z,88386.00
2023-04-17T11:30:32.087Z,88388.00
2023-04-17T11:31:32.146Z,88388.00
2023-04-17T11:32:32.063Z,88388.00
2023-04-17T11:33:32.072Z,88384.00
2023-04-17T11:34:32.058Z,88386.00
2023-04-17T11:35:32.046Z,88388.00
2023-04-17T11:36:32.067Z,88390.00
2023-04-17T11:37:32.087Z,88384.00
2023-04-17T11:38:32.062Z,88386.00
2023-04-17T11:39:32.069Z,88388.00
2023-04-17T11:40:32.130Z,88386.00
2023-04-17T11:41:32.105Z,88388.00
2023-04-17T11:42:32.093Z,88386.00
2023-04-17T11:43:32.098Z,88384.00
2023-04-17T11:44:32.107Z,88390.00
2023-04-17T11:45:32.079Z,88388.00